Time;durP1;ratioP1;P1;durP2;ratioP2;P2;SDS_P1;SDS_P2;PMS_P1;PMS_P2;Temp;Humidity;BMP_temperature;BMP_pressure;BME280_temperature;BME280_humidity;BME280_pressure;Samples;Min_cycle;Max_cycle;Signal;HPM_P1;HPM_P2
2022/06/04 00:00:18;;;;;;;13.27;8.90;;;23.40;99.90;;;;;;4840378;29;20159;-75
2022/06/04 00:03:04;;;;;;;11.88;9.48;;;23.00;99.90;;;;;;4840996;29;20125;-78
2022/06/04 00:05:52;;;;;;;14.07;10.38;;;23.20;99.90;;;;;;4840066;29;20049;-77
2022/06/04 00:08:38;;;;;;;13.60;9.52;;;23.40;99.90;;;;;;4840502;29;20529;-76
2022/06/04 00:17:35;;;;;;;12.48;9.10;;;23.20;99.90;;;;;;4854768;29;20170;-76
2022/06/04 00:20:21;;;;;;;13.32;9.23;;;23.00;99.90;;;;;;4857810;29;20069;-74
2022/06/04 00:23:09;;;;;;;14.65;9.70;;;23.10;99.90;;;;;;4868159;29;20061;-78
2022/06/04 00:25:57;;;;;;;15.93;9.40;;;23.10;99.90;;;;;;4843499;29;20065;-76
2022/06/04 00:28:46;;;;;;;13.07;9.73;;;23.20;99.90;;;;;;4843483;29;20137;-77
2022/06/04 00:31:36;;;;;;;16.30;9.93;;;22.90;99.90;;;;;;4843434;29;20061;-75
2022/06/04 00:34:22;;;;;;;;;;;22.90;99.90;;;;;;4844041;29;20134;-79
2022/06/04 00:37:08;;;;;;;12.98;9.55;;;23.00;99.90;;;;;;4831395;29;20337;-76
2022/06/04 00:39:58;;;;;;;14.50;10.10;;;22.90;99.90;;;;;;4852657;29;20061;-77
2022/06/04 00:42:44;;;;;;;13.47;10.30;;;22.90;99.90;;;;;;4862096;29;20407;-77
2022/06/04 00:45:32;;;;;;;11.35;9.70;;;22.80;99.90;;;;;;4861245;29;20057;-77
2022/06/04 00:48:20;;;;;;;12.50;9.40;;;22.90;99.90;;;;;;4861848;29;20065;-77
2022/06/04 00:51:07;;;;;;;13.27;10.00;;;22.70;99.90;;;;;;4861788;29;20079;-79
2022/06/04 00:53:55;;;;;;;15.85;10.90;;;22.30;99.90;;;;;;4861149;29;20105;-79
2022/06/04 00:57:17;;;;;;;15.98;10.13;;;22.50;99.90;;;;;;4861754;29;20532;-78
2022/06/04 01:00:06;;;;;;;17.75;9.55;;;22.50;99.90;;;;;;4861259;29;20141;-76
2022/06/04 01:03:09;;;;;;;21.52;16.85;;;22.70;99.90;;;;;;4861290;29;20048;-76
2022/06/04 01:06:23;;;;;;;20.25;15.25;;;23.00;99.90;;;;;;4862012;29;20064;-80
2022/06/04 01:09:50;;;;;;;21.23;14.95;;;22.90;99.90;;;;;;4861719;29;20060;-75
2022/06/04 01:12:57;;;;;;;16.48;12.60;;;22.80;99.90;;;;;;4861393;29;20225;-79
2022/06/04 01:15:49;;;;;;;18.38;12.93;;;23.00;99.90;;;;;;4860738;29;20057;-79
2022/06/04 01:19:02;;;;;;;16.17;10.95;;;23.20;99.90;;;;;;4860695;29;20536;-81
2022/06/04 01:21:51;;;;;;;16.75;12.20;;;23.20;99.90;;;;;;4861510;29;20052;-74
2022/06/04 01:24:46;;;;;;;15.55;11.63;;;23.20;99.90;;;;;;4842881;29;20118;-80
2022/06/04 01:27:44;;;;;;;15.23;10.48;;;23.30;99.90;;;;;;4842422;29;20057;-81
2022/06/04 01:30:35;;;;;;;15.50;10.45;;;22.80;99.90;;;;;;4842822;29;20141;-73
2022/06/04 01:33:44;;;;;;;14.13;9.23;;;22.30;99.90;;;;;;4841451;29;20179;-79
2022/06/04 01:36:41;;;;;;;14.38;9.93;;;22.50;99.90;;;;;;4842968;29;20065;-74
2022/06/04 01:41:03;;;;;;;15.75;9.98;;;22.60;99.90;;;;;;4841742;29;20065;-80
2022/06/04 01:42:37;;;;;;;13.32;11.32;;;22.20;99.90;;;;;;4842758;29;20525;-79
2022/06/04 01:45:26;;;;;;;15.32;10.82;;;21.80;99.90;;;;;;4841793;29;20515;-78
2022/06/04 01:48:13;;;;;;;15.15;10.90;;;21.60;99.90;;;;;;4842330;29;20053;-79
2022/06/04 01:51:03;;;;;;;15.80;11.93;;;21.60;99.90;;;;;;4842897;29;20061;-78
2022/06/04 01:53:56;;;;;;;17.02;11.85;;;21.70;99.90;;;;;;4842667;29;20065;-73
2022/06/04 01:56:47;;;;;;;15.60;11.00;;;22.00;99.90;;;;;;4842509;29;20090;-74
2022/06/04 01:59:42;;;;;;;17.35;10.27;;;22.40;99.90;;;;;;4841765;29;20106;-79
2022/06/04 02:02:39;;;;;;;14.85;10.93;;;22.50;99.90;;;;;;4842501;29;20525;-76
2022/06/04 02:05:35;;;;;;;13.48;10.48;;;22.50;99.90;;;;;;4842755;29;20109;-78
2022/06/04 02:08:35;;;;;;;12.98;10.48;;;22.40;99.90;;;;;;4842086;29;20141;-77
2022/06/04 02:11:23;;;;;;;;;;;22.30;99.90;;;;;;4842327;29;20421;-76
2022/06/04 02:14:09;;;;;;;12.40;10.60;;;22.40;99.90;;;;;;4842131;29;19935;-74
2022/06/04 02:17:01;;;;;;;19.35;10.93;;;22.40;99.90;;;;;;4842527;29;20045;-80
2022/06/04 02:19:48;;;;;;;14.48;10.60;;;22.40;99.90;;;;;;4841888;29;20056;-81
2022/06/04 02:22:34;;;;;;;13.32;10.90;;;22.20;99.90;;;;;;4846090;29;20064;-80
2022/06/04 02:25:21;;;;;;;17.20;11.10;;;22.20;99.90;;;;;;4860820;29;20151;-80
2022/06/04 02:28:09;;;;;;;14.00;11.05;;;22.10;99.90;;;;;;4859769;29;20068;-78
2022/06/04 02:31:27;;;;;;;16.73;12.13;;;22.00;99.90;;;;;;4859424;29;20077;-79
2022/06/04 02:34:35;;;;;;;14.93;11.00;;;22.20;99.90;;;;;;4859903;29;20060;-73
2022/06/04 02:37:40;;;;;;;17.90;10.60;;;22.40;99.90;;;;;;4860155;29;20437;-76
2022/06/04 02:40:43;;;;;;;14.48;10.80;;;22.30;99.90;;;;;;4858948;29;20064;-80
2022/06/04 02:43:48;;;;;;;15.70;11.30;;;22.20;99.90;;;;;;4859302;29;20060;-74
2022/06/04 02:46:41;;;;;;;15.15;11.13;;;22.20;99.90;;;;;;4860063;29;20060;-75
2022/06/04 02:49:48;;;;;;;21.90;11.80;;;22.10;99.90;;;;;;4859391;29;20722;-76
2022/06/04 02:52:35;;;;;;;14.52;11.13;;;21.90;99.90;;;;;;4858940;29;20218;-82
2022/06/04 02:55:28;;;;;;;14.93;11.10;;;22.20;99.90;;;;;;4859508;29;20052;-80
2022/06/04 02:58:17;;;;;;;18.40;10.93;;;22.20;99.90;;;;;;4859365;29;20414;-81
2022/06/04 03:01:08;;;;;;;14.83;11.37;;;22.10;99.90;;;;;;4860790;29;20065;-78
2022/06/04 03:03:54;;;;;;;16.33;11.00;;;22.20;99.90;;;;;;4860196;29;20129;-82
2022/06/04 03:06:40;;;;;;;16.25;10.48;;;22.00;99.90;;;;;;4860526;29;20508;-78
2022/06/04 03:09:26;;;;;;;15.57;11.15;;;22.20;99.90;;;;;;4859584;29;20149;-77
2022/06/04 03:12:12;;;;;;;15.30;11.32;;;21.80;99.90;;;;;;4859061;29;20057;-78
2022/06/04 03:14:58;;;;;;;15.27;11.40;;;21.90;99.90;;;;;;4860469;29;20075;-80
2022/06/04 03:17:46;;;;;;;13.65;10.55;;;21.60;99.90;;;;;;4859655;29;20129;-81
2022/06/04 03:20:31;;;;;;;19.63;11.43;;;21.70;99.90;;;;;;4859828;29;20052;-77
2022/06/04 03:23:17;;;;;;;15.93;10.82;;;22.00;99.90;;;;;;4851829;29;20065;-77
2022/06/04 03:26:03;;;;;;;17.77;11.20;;;22.00;99.90;;;;;;4841966;29;20057;-80
2022/06/04 03:28:49;;;;;;;18.40;10.98;;;22.00;99.90;;;;;;4839746;29;20061;-80
2022/06/04 03:31:36;;;;;;;15.88;11.18;;;21.90;99.90;;;;;;4841648;29;20048;-82
2022/06/04 03:34:21;;;;;;;15.30;11.18;;;21.90;99.90;;;;;;4841305;29;20138;-80
2022/06/04 03:37:08;;;;;;;21.38;10.93;;;21.90;99.90;;;;;;4841151;29;20543;-79
2022/06/04 03:39:54;;;;;;;20.73;12.20;;;21.80;99.90;;;;;;4841002;29;20079;-79
2022/06/04 03:42:40;;;;;;;14.90;11.13;;;21.90;99.90;;;;;;4841137;29;20064;-76
2022/06/04 03:45:26;;;;;;;13.98;10.82;;;21.80;99.90;;;;;;4840937;29;20075;-78
2022/06/04 03:48:12;;;;;;;15.95;11.30;;;21.80;99.90;;;;;;4840830;29;20049;-80
2022/06/04 03:50:58;;;;;;;17.65;11.48;;;21.70;99.90;;;;;;4840928;29;20064;-77
2022/06/04 03:53:44;;;;;;;16.13;11.52;;;21.70;99.90;;;;;;4840819;29;20676;-79
2022/06/04 03:56:30;;;;;;;14.60;11.18;;;21.80;99.90;;;;;;4844484;29;20169;-79
2022/06/04 03:59:16;;;;;;;17.90;11.32;;;21.80;99.90;;;;;;4844581;29;20069;-77
2022/06/04 04:02:22;;;;;;;14.13;10.82;;;21.60;99.90;;;;;;4843497;29;20414;-77
2022/06/04 04:05:10;;;;;;;16.63;11.52;;;21.60;99.90;;;;;;4844198;29;20144;-80
2022/06/04 04:07:57;;;;;;;13.55;11.13;;;21.80;99.90;;;;;;4844176;29;20049;-75
2022/06/04 04:10:44;;;;;;;18.85;11.63;;;22.00;99.90;;;;;;4843395;29;20501;-78
2022/06/04 04:13:30;;;;;;;12.85;10.60;;;22.00;99.90;;;;;;4844094;29;20153;-82
2022/06/04 04:16:16;;;;;;;20.02;10.57;;;22.00;99.90;;;;;;4844174;29;20053;-83
2022/06/04 04:19:02;;;;;;;17.73;10.55;;;22.00;99.90;;;;;;4844059;29;20056;-82
2022/06/04 04:21:48;;;;;;;21.48;11.65;;;22.20;99.90;;;;;;4844229;29;20065;-84
2022/06/04 04:24:33;;;;;;;18.80;11.25;;;22.10;99.90;;;;;;4859876;29;20056;-82
2022/06/04 04:27:19;;;;;;;17.85;11.77;;;22.20;99.90;;;;;;4862679;29;20047;-81
2022/06/04 04:30:08;;;;;;;14.95;11.48;;;22.10;99.90;;;;;;4862667;29;20072;-84
2022/06/04 04:32:54;;;;;;;16.00;11.13;;;22.10;99.90;;;;;;4862087;29;20084;-83
2022/06/04 04:35:41;;;;;;;19.08;11.88;;;22.10;99.90;;;;;;4862396;29;20052;-78
2022/06/04 04:38:27;;;;;;;16.30;10.60;;;22.40;99.90;;;;;;4862867;29;20569;-78
2022/06/04 04:41:15;;;;;;;18.92;10.98;;;22.10;99.90;;;;;;4863264;29;20056;-79
2022/06/04 04:44:00;;;;;;;16.48;11.38;;;22.10;99.90;;;;;;4862638;29;20398;-78
2022/06/04 04:46:49;;;;;;;15.23;10.15;;;22.00;99.90;;;;;;4862166;29;20060;-78
2022/06/04 04:49:35;;;;;;;16.05;10.65;;;21.80;99.90;;;;;;4862453;29;20430;-82
2022/06/04 04:52:21;;;;;;;14.07;10.88;;;21.80;99.90;;;;;;4862229;29;20049;-77
2022/06/04 04:55:07;;;;;;;15.05;10.45;;;21.90;99.90;;;;;;4862695;29;20549;-79
2022/06/04 04:57:53;;;;;;;13.13;10.88;;;21.70;99.90;;;;;;4862536;29;20475;-78
2022/06/04 05:00:40;;;;;;;15.98;11.10;;;21.70;99.90;;;;;;4862439;29;20076;-78
2022/06/04 05:03:25;;;;;;;17.17;10.90;;;21.90;99.90;;;;;;4862064;29;20058;-78
2022/06/04 05:06:14;;;;;;;14.05;10.82;;;21.80;99.90;;;;;;4860843;29;20189;-79
2022/06/04 05:08:59;;;;;;;15.60;10.32;;;21.90;99.90;;;;;;4861712;29;20076;-81
2022/06/04 05:11:45;;;;;;;16.25;10.73;;;22.10;99.90;;;;;;4861480;29;20060;-78
2022/06/04 05:14:36;;;;;;;13.40;11.13;;;22.20;99.90;;;;;;4861284;29;20642;-79
2022/06/04 05:17:23;;;;;;;15.88;10.82;;;22.50;99.90;;;;;;4861465;29;20052;-78
2022/06/04 05:20:11;;;;;;;17.02;10.88;;;22.50;99.90;;;;;;4860485;29;20060;-79
2022/06/04 05:22:57;;;;;;;14.98;11.52;;;22.70;99.90;;;;;;4859230;29;20105;-80
2022/06/04 05:25:44;;;;;;;17.30;10.93;;;22.50;99.90;;;;;;4843830;29;20053;-80
2022/06/04 05:28:30;;;;;;;14.07;11.27;;;22.50;99.90;;;;;;4843235;29;20065;-79
2022/06/04 05:31:17;;;;;;;14.27;10.23;;;22.40;99.90;;;;;;4843083;29;20061;-77
2022/06/04 05:34:03;;;;;;;14.60;11.75;;;22.50;99.90;;;;;;4842681;29;20511;-76
2022/06/04 05:36:49;;;;;;;19.85;11.02;;;22.80;99.90;;;;;;4843447;29;20091;-78
2022/06/04 05:39:35;;;;;;;18.52;11.05;;;22.70;99.90;;;;;;4842626;29;20073;-76
2022/06/04 05:42:21;;;;;;;15.35;10.73;;;22.60;99.90;;;;;;4842541;29;20057;-76
2022/06/04 05:45:08;;;;;;;13.25;11.05;;;22.60;99.90;;;;;;4842657;29;20069;-77
2022/06/04 05:47:54;;;;;;;15.15;10.00;;;22.70;99.90;;;;;;4842774;29;20072;-79
2022/06/04 05:50:40;;;;;;;17.15;11.38;;;22.70;99.90;;;;;;4842264;29;20174;-80
2022/06/04 05:53:26;;;;;;;14.65;10.70;;;22.90;99.90;;;;;;4842519;29;20053;-80
2022/06/04 05:56:21;;;;;;;18.67;10.93;;;22.90;99.90;;;;;;4843138;29;20460;-76
2022/06/04 05:59:11;;;;;;;16.75;11.25;;;23.00;99.90;;;;;;4842490;29;20072;-80
2022/06/04 06:01:57;;;;;;;21.25;10.82;;;22.80;99.90;;;;;;4842617;29;20057;-77
2022/06/04 06:04:43;;;;;;;17.30;11.55;;;22.80;99.90;;;;;;4842879;29;20056;-79
2022/06/04 06:07:30;;;;;;;16.80;11.38;;;22.90;99.90;;;;;;4842327;29;20064;-82
2022/06/04 06:10:15;;;;;;;14.45;10.68;;;23.10;99.90;;;;;;4842665;29;20113;-81
2022/06/04 06:13:01;;;;;;;14.05;10.40;;;23.00;99.90;;;;;;4842603;29;20517;-75
2022/06/04 06:15:47;;;;;;;17.08;10.55;;;23.20;99.90;;;;;;4842376;29;20060;-77
2022/06/04 06:18:34;;;;;;;15.32;11.05;;;23.30;99.90;;;;;;4842049;29;20149;-78
2022/06/04 06:21:23;;;;;;;14.57;10.93;;;23.50;99.90;;;;;;4841611;29;20073;-77
2022/06/04 06:24:11;;;;;;;19.35;11.25;;;23.60;99.90;;;;;;4851241;29;20081;-77
2022/06/04 06:26:59;;;;;;;15.95;11.38;;;23.50;99.90;;;;;;4860810;29;20121;-79
2022/06/04 06:29:45;;;;;;;14.13;10.85;;;23.50;99.90;;;;;;4860702;29;20060;-82
2022/06/04 06:32:31;;;;;;;16.13;11.27;;;23.70;99.90;;;;;;4860010;29;20520;-77
2022/06/04 06:35:17;;;;;;;15.60;11.13;;;23.80;99.90;;;;;;4860833;29;20463;-79
2022/06/04 06:38:03;;;;;;;14.30;11.25;;;23.70;99.90;;;;;;4860193;29;20055;-77
2022/06/04 06:40:49;;;;;;;19.77;10.77;;;23.90;99.90;;;;;;4861089;29;20048;-78
2022/06/04 06:46:36;;;;;;;18.00;12.93;;;23.90;99.90;;;;;;4860601;29;20136;-75
2022/06/04 06:49:26;;;;;;;17.75;12.27;;;23.60;99.90;;;;;;4860205;29;20074;-74
2022/06/04 06:52:13;;;;;;;17.30;12.13;;;23.30;99.90;;;;;;4860062;29;20471;-78
2022/06/04 06:54:59;;;;;;;22.02;13.85;;;23.50;99.90;;;;;;4860089;29;20048;-75
2022/06/04 06:57:45;;;;;;;16.15;11.90;;;23.60;99.90;;;;;;4859838;29;20087;-76
2022/06/04 07:00:31;;;;;;;18.05;11.13;;;23.80;99.90;;;;;;4859335;29;20109;-80
2022/06/04 07:03:18;;;;;;;15.07;10.73;;;24.10;99.90;;;;;;4859574;29;20059;-77
2022/06/04 07:06:07;;;;;;;13.38;10.25;;;24.00;99.90;;;;;;4860110;29;20088;-75
2022/06/04 07:08:53;;;;;;;17.80;11.32;;;23.90;99.90;;;;;;4859945;29;20056;-78
2022/06/04 07:11:39;;;;;;;18.60;11.18;;;23.90;99.90;;;;;;4859812;29;20153;-76
2022/06/04 07:14:26;;;;;;;18.80;12.63;;;24.10;99.90;;;;;;4858712;29;20186;-79
2022/06/04 07:17:11;;;;;;;19.35;12.10;;;24.20;99.90;;;;;;4853322;29;20764;-74
2022/06/04 07:19:58;;;;;;;21.75;12.32;;;24.10;99.90;;;;;;4858199;29;20137;-75
2022/06/04 07:22:43;;;;;;;14.20;11.00;;;24.10;99.90;;;;;;4851791;29;20053;-74
2022/06/04 07:25:33;;;;;;;16.88;11.43;;;24.40;99.90;;;;;;4841567;29;20065;-80
2022/06/04 07:28:19;;;;;;;16.42;10.70;;;24.70;99.90;;;;;;4840801;29;20130;-79
2022/06/04 07:31:07;;;;;;;16.80;11.40;;;24.60;99.90;;;;;;4855298;29;20569;-77
2022/06/04 07:33:55;;;;;;;16.73;11.00;;;24.60;99.90;;;;;;4858389;29;20060;-76
2022/06/04 07:36:43;;;;;;;14.27;10.63;;;24.60;99.90;;;;;;4859746;29;20152;-77
2022/06/04 07:39:29;;;;;;;15.77;11.63;;;24.70;99.90;;;;;;4858577;29;20181;-76
2022/06/04 07:42:15;;;;;;;18.30;11.45;;;24.60;99.90;;;;;;4859501;29;20072;-76
2022/06/04 07:45:01;;;;;;;14.98;10.55;;;24.60;99.90;;;;;;4850348;29;20170;-78
2022/06/04 07:47:47;;;;;;;16.38;11.75;;;24.50;99.90;;;;;;4851044;29;20060;-79
2022/06/04 07:50:34;;;;;;;17.63;11.52;;;24.80;99.90;;;;;;4847058;29;20128;-78
2022/06/04 07:53:20;;;;;;;20.13;11.50;;;25.10;99.90;;;;;;4848428;29;20550;-78
2022/06/04 07:56:08;;;;;;;19.40;11.40;;;25.30;99.90;;;;;;4841580;29;20191;-81
2022/06/04 07:58:55;;;;;;;23.02;13.00;;;25.40;99.90;;;;;;4840794;29;20065;-77
2022/06/04 08:01:40;;;;;;;17.35;11.20;;;25.20;99.90;;;;;;4840827;29;20421;-74
2022/06/04 08:04:26;;;;;;;14.75;11.40;;;25.00;99.90;;;;;;4840623;29;20069;-76
2022/06/04 08:07:12;;;;;;;14.32;11.27;;;25.00;99.90;;;;;;4840709;29;20053;-73
2022/06/04 08:09:59;;;;;;;16.42;11.00;;;25.00;99.90;;;;;;4840895;29;20057;-79
2022/06/04 08:13:02;;;;;;;28.30;12.68;;;25.30;99.90;;;;;;4840971;29;20069;-77
2022/06/04 08:15:48;;;;;;;19.30;13.75;;;25.50;99.90;;;;;;4840578;29;20114;-72
2022/06/04 08:18:33;;;;;;;18.58;13.25;;;25.50;99.90;;;;;;4840884;29;20053;-75
2022/06/04 08:21:19;;;;;;;13.68;10.55;;;25.40;99.90;;;;;;4839594;29;20513;-74
2022/06/04 08:24:06;;;;;;;17.08;11.40;;;25.40;99.90;;;;;;4856127;29;20069;-77
2022/06/04 08:26:58;;;;;;;17.42;11.82;;;25.40;99.90;;;;;;4859093;29;20129;-78
2022/06/04 08:29:44;;;;;;;13.00;10.32;;;25.60;99.90;;;;;;4859159;29;20157;-78
2022/06/04 08:32:43;;;;;;;16.65;10.77;;;25.50;99.90;;;;;;4859139;29;20056;-77
2022/06/04 08:35:29;;;;;;;16.25;10.75;;;25.80;99.90;;;;;;4858005;29;20072;-79
2022/06/04 08:38:15;;;;;;;21.42;12.57;;;25.90;99.90;;;;;;4858901;29;20158;-76
2022/06/04 08:41:05;;;;;;;20.20;12.07;;;25.80;99.90;;;;;;4861069;29;20167;-79
2022/06/04 08:44:06;;;;;;;14.10;10.45;;;25.90;99.90;;;;;;4855364;29;20053;-79
2022/06/04 08:46:56;;;;;;;12.50;9.85;;;26.00;99.90;;;;;;4844091;29;20065;-77
2022/06/04 08:49:50;;;;;;;14.88;10.13;;;26.00;99.90;;;;;;4843758;29;20677;-79
2022/06/04 08:52:52;;;;;;;14.38;11.00;;;26.20;99.90;;;;;;4843630;29;20581;-79
2022/06/04 08:58:55;;;;;;;12.30;9.32;;;26.20;99.90;;;;;;4843193;29;20057;-73
2022/06/04 09:01:58;;;;;;;115.20;83.45;;;26.40;99.90;;;;;;4845977;29;20065;-76
2022/06/04 09:04:52;;;;;;;112.93;93.07;;;26.60;99.90;;;;;;4848490;29;20612;-77
2022/06/04 09:07:49;;;;;;;21.20;16.48;;;26.70;99.90;;;;;;4843854;29;20110;-72
2022/06/04 09:10:42;;;;;;;14.88;10.48;;;26.70;99.90;;;;;;4843838;29;20135;-86
2022/06/04 09:13:40;;;;;;;20.63;14.68;;;26.90;99.90;;;;;;4843474;29;20171;-76
2022/06/04 09:16:34;;;;;;;16.65;12.40;;;26.90;99.90;;;;;;4843834;29;20090;-81
2022/06/04 09:19:25;;;;;;;14.50;10.43;;;26.80;99.90;;;;;;4843374;29;20057;-77
2022/06/04 09:22:21;;;;;;;13.02;10.35;;;26.80;99.90;;;;;;4843386;29;20061;-76
2022/06/04 09:25:12;;;;;;;16.10;11.75;;;27.00;99.90;;;;;;4843116;29;20053;-79
2022/06/04 09:28:23;;;;;;;19.25;13.25;;;27.20;99.90;;;;;;4843010;29;20119;-73
2022/06/04 09:31:22;;;;;;;25.30;11.93;;;27.30;99.90;;;;;;4842917;29;20057;-75
2022/06/04 09:34:28;;;;;;;18.52;10.90;;;27.20;99.50;;;;;;4842064;29;20161;-80
2022/06/04 09:37:14;;;;;;;12.60;10.02;;;27.40;99.90;;;;;;4843104;29;20053;-75
2022/06/04 09:40:06;;;;;;;56.70;42.03;;;27.50;99.80;;;;;;4843572;29;20146;-76
2022/06/04 09:43:09;;;;;;;39.65;29.52;;;27.50;99.50;;;;;;4841514;29;20057;-75
2022/06/04 09:46:14;;;;;;;20.58;13.25;;;27.70;99.60;;;;;;4843119;29;20069;-76
2022/06/04 09:49:11;;;;;;;18.42;11.48;;;27.50;98.50;;;;;;4842455;29;20182;-81
2022/06/04 09:51:57;;;;;;;12.15;8.98;;;27.50;98.50;;;;;;4843127;29;20053;-78
2022/06/04 09:54:54;;;;;;;13.95;9.32;;;27.70;98.40;;;;;;4842837;29;20513;-74
2022/06/04 09:57:40;;;;;;;12.80;9.20;;;27.90;97.50;;;;;;4842103;29;20057;-75
2022/06/04 10:00:30;;;;;;;13.80;8.80;;;28.00;97.40;;;;;;4841866;29;20048;-78
2022/06/04 10:03:18;;;;;;;12.10;8.68;;;28.20;97.40;;;;;;4842825;29;20057;-76
2022/06/04 10:06:16;;;;;;;19.20;9.95;;;28.30;97.00;;;;;;4842460;29;20134;-80
2022/06/04 10:15:51;;;;;;;12.00;8.35;;;28.80;97.30;;;;;;4842483;29;20192;-77
2022/06/04 10:18:37;;;;;;;24.27;9.68;;;28.80;96.40;;;;;;4841706;29;20073;-77
2022/06/04 10:21:28;;;;;;;12.57;8.88;;;28.80;95.80;;;;;;4842335;29;20060;-79
2022/06/04 10:24:31;;;;;;;10.73;8.77;;;28.80;95.30;;;;;;4855361;29;20112;-74
2022/06/04 10:27:54;;;;;;;12.68;8.80;;;29.00;95.20;;;;;;4860086;29;20061;-74
2022/06/04 10:30:55;;;;;;;17.90;9.95;;;29.30;94.10;;;;;;4860485;29;20523;-73
2022/06/04 10:34:01;;;;;;;24.20;12.27;;;29.30;93.80;;;;;;4860493;29;20113;-75
2022/06/04 10:37:07;;;;;;;13.70;8.98;;;29.00;93.70;;;;;;4860157;29;20051;-75
2022/06/04 10:40:20;;;;;;;15.98;8.02;;;29.30;94.20;;;;;;4859341;29;20064;-79
2022/06/04 10:43:30;;;;;;;11.63;9.23;;;29.40;93.80;;;;;;4860278;29;20137;-77
2022/06/04 10:46:32;;;;;;;16.20;8.60;;;29.50;92.90;;;;;;4857925;29;20117;-75
2022/06/04 10:49:24;;;;;;;10.95;8.32;;;29.50;92.40;;;;;;4847049;29;20114;-77
2022/06/04 10:52:34;;;;;;;13.15;8.18;;;29.60;91.40;;;;;;4839754;29;20056;-79
2022/06/04 10:55:41;;;;;;;16.13;9.07;;;29.70;91.60;;;;;;4839157;29;20130;-77
2022/06/04 10:58:40;;;;;;;12.77;8.65;;;29.70;90.80;;;;;;4838904;29;20086;-74
2022/06/04 11:01:31;;;;;;;13.50;7.90;;;29.60;90.50;;;;;;4839735;29;20049;-75
2022/06/04 11:04:48;;;;;;;9.77;6.93;;;29.50;90.00;;;;;;4839819;29;20064;-80
2022/06/04 11:07:53;;;;;;;11.15;7.75;;;30.00;87.90;;;;;;4841518;29;20183;-81
2022/06/04 11:10:52;;;;;;;9.57;6.63;;;30.20;85.80;;;;;;4840675;29;20079;-76
2022/06/04 11:13:43;;;;;;;10.65;6.32;;;30.40;83.30;;;;;;4840179;29;20057;-80
2022/06/04 11:16:45;;;;;;;10.95;6.90;;;30.70;80.80;;;;;;4862614;29;20165;-76
2022/06/04 11:19:37;;;;;;;9.10;6.05;;;30.70;77.20;;;;;;4858513;29;20052;-75
2022/06/04 11:22:36;;;;;;;10.25;6.88;;;30.60;74.60;;;;;;4858136;29;20056;-73
2022/06/04 11:25:30;;;;;;;8.13;6.40;;;30.50;75.00;;;;;;4840174;29;20056;-75
2022/06/04 11:28:27;;;;;;;16.63;14.82;;;30.50;76.40;;;;;;4852304;29;20061;-75
2022/06/04 11:31:25;;;;;;;17.08;13.85;;;30.60;74.70;;;;;;4840785;29;20134;-73
2022/06/04 11:34:29;;;;;;;21.38;18.17;;;30.70;75.80;;;;;;4839875;29;20533;-74
2022/06/04 11:37:34;;;;;;;23.77;15.50;;;30.80;76.90;;;;;;4839541;29;20185;-74
2022/06/04 11:40:47;;;;;;;15.50;9.98;;;30.70;77.80;;;;;;4853251;29;20163;-75
2022/06/04 11:43:42;;;;;;;23.30;19.55;;;30.80;78.00;;;;;;4839793;29;20165;-75
2022/06/04 11:46:54;;;;;;;37.30;30.92;;;30.70;76.10;;;;;;4839631;29;20049;-74
2022/06/04 11:50:06;;;;;;;20.60;13.02;;;30.80;76.30;;;;;;4839865;29;20060;-74
2022/06/04 11:53:10;;;;;;;13.73;8.10;;;30.60;75.60;;;;;;4839778;29;20099;-74
2022/06/04 11:56:35;;;;;;;13.00;9.18;;;31.10;76.70;;;;;;4839989;29;20197;-75
2022/06/04 11:59:27;;;;;;;14.18;9.27;;;30.80;74.00;;;;;;4839485;29;20142;-73
2022/06/04 12:02:27;;;;;;;48.92;38.33;;;30.90;74.50;;;;;;4839671;29;20078;-74
2022/06/04 12:05:21;;;;;;;;;;;31.00;75.30;;;;;;4852581;29;20053;-75
2022/06/04 12:08:10;;;;;;;17.40;10.90;;;31.20;73.10;;;;;;4857448;29;19972;-74
2022/06/04 12:11:18;;;;;;;11.73;7.85;;;31.60;72.40;;;;;;4857798;29;20581;-75
2022/06/04 12:14:20;;;;;;;13.52;7.93;;;31.60;72.10;;;;;;4857902;29;20417;-76
2022/06/04 12:17:06;;;;;;;14.93;9.48;;;31.50;71.10;;;;;;4861289;29;20060;-74
2022/06/04 12:26:39;;;;;;;9.93;6.30;;;31.80;70.40;;;;;;4862139;29;20084;-75
2022/06/04 12:29:28;;;;;;;13.30;8.75;;;31.90;69.10;;;;;;4860803;29;20183;-77
2022/06/04 12:32:30;;;;;;;12.98;8.15;;;31.70;71.30;;;;;;4860837;29;20053;-74
2022/06/04 12:35:22;;;;;;;11.40;7.13;;;31.60;69.50;;;;;;4861095;29;20088;-75
2022/06/04 12:38:14;;;;;;;10.82;7.32;;;31.70;69.00;;;;;;4861030;29;20052;-75
2022/06/04 12:41:16;;;;;;;10.85;6.22;;;31.70;69.00;;;;;;4861864;29;20456;-75
2022/06/04 12:44:02;;;;;;;9.10;6.68;;;32.00;70.00;;;;;;4860311;29;20142;-76
2022/06/04 12:46:52;;;;;;;10.80;6.75;;;31.50;68.70;;;;;;4857253;29;20080;-75
2022/06/04 12:49:48;;;;;;;9.98;6.38;;;31.30;67.50;;;;;;4853119;29;20481;-75
2022/06/04 12:52:57;;;;;;;9.93;6.75;;;30.90;68.10;;;;;;4850649;29;20201;-76
2022/06/04 12:55:49;;;;;;;10.35;6.85;;;30.30;69.40;;;;;;4853144;29;20049;-75
2022/06/04 12:58:40;;;;;;;8.93;6.43;;;30.20;69.10;;;;;;4849525;29;20052;-77
2022/06/04 13:01:37;;;;;;;12.15;6.30;;;30.20;69.40;;;;;;4850689;29;20057;-75
2022/06/04 13:04:36;;;;;;;12.48;7.95;;;29.90;69.70;;;;;;4852532;29;20088;-74
2022/06/04 13:07:28;;;;;;;13.27;8.43;;;30.20;69.00;;;;;;4851395;29;20125;-76
2022/06/04 13:10:31;;;;;;;15.27;10.70;;;30.00;69.00;;;;;;4850250;29;20130;-75
2022/06/04 13:13:27;;;;;;;21.17;12.18;;;30.40;69.60;;;;;;4845040;29;20057;-76
2022/06/04 13:16:21;;;;;;;11.30;8.63;;;29.70;69.30;;;;;;4843396;29;20057;-74
2022/06/04 13:19:08;;;;;;;8.07;7.05;;;29.60;68.60;;;;;;4854232;29;20207;-74
2022/06/04 13:21:54;;;;;;;8.63;6.15;;;29.90;68.30;;;;;;4843483;29;20102;-74
2022/06/04 13:24:40;;;;;;;8.95;6.18;;;30.60;66.10;;;;;;4861483;29;20089;-75
2022/06/04 13:27:38;;;;;;;9.00;5.50;;;30.50;65.80;;;;;;4859976;29;20108;-75
2022/06/04 13:30:32;;;;;;;7.32;5.70;;;30.50;64.60;;;;;;4860099;29;20061;-75
2022/06/04 13:33:20;;;;;;;7.35;5.38;;;30.50;64.40;;;;;;4859977;29;20118;-75
2022/06/04 13:36:06;;;;;;;7.93;5.55;;;30.50;64.10;;;;;;4851847;29;20056;-75
2022/06/04 13:38:58;;;;;;;8.30;5.70;;;30.60;65.00;;;;;;4845256;29;20235;-73
2022/06/04 13:42:02;;;;;;;13.60;6.18;;;30.90;63.80;;;;;;4842670;29;20110;-76
2022/06/04 13:44:56;;;;;;;11.18;6.03;;;30.60;62.20;;;;;;4842509;29;20597;-76
2022/06/04 13:47:56;;;;;;;10.23;6.13;;;30.50;64.10;;;;;;4842460;29;20532;-75
2022/06/04 13:50:49;;;;;;;8.65;5.72;;;30.60;64.10;;;;;;4842236;29;20057;-75
2022/06/04 13:53:45;;;;;;;8.45;5.28;;;31.30;65.10;;;;;;4842222;29;20050;-82
2022/06/04 13:56:40;;;;;;;8.63;5.15;;;31.30;64.70;;;;;;4859265;29;20268;-82
2022/06/04 13:59:46;;;;;;;37.60;30.17;;;31.30;64.80;;;;;;4859950;29;20057;-84
2022/06/04 14:02:33;;;;;;;10.30;6.47;;;31.30;66.50;;;;;;4859514;29;20141;-75
2022/06/04 14:05:43;;;;;;;86.07;65.78;;;31.10;65.70;;;;;;4860127;29;20052;-87
2022/06/04 14:08:33;;;;;;;21.35;17.45;;;30.80;66.40;;;;;;4858968;29;20052;-82
2022/06/04 14:11:41;;;;;;;33.22;24.67;;;30.70;67.40;;;;;;4859572;29;20068;-80
2022/06/04 14:14:38;;;;;;;32.65;24.40;;;30.30;68.70;;;;;;4856797;29;20521;-79
2022/06/04 14:17:55;;;;;;;9.98;7.50;;;30.00;68.70;;;;;;4860277;29;20057;-75
2022/06/04 14:20:59;;;;;;;10.57;7.40;;;30.30;69.60;;;;;;4860288;29;20421;-80
2022/06/04 14:24:05;;;;;;;12.57;7.20;;;30.30;69.30;;;;;;4846261;29;20068;-78
2022/06/04 14:27:16;;;;;;;9.30;6.13;;;30.20;70.30;;;;;;4841784;29;20057;-75
2022/06/04 14:30:35;;;;;;;11.65;5.55;;;30.20;71.40;;;;;;4841553;29;20057;-79
2022/06/04 14:33:24;;;;;;;8.63;6.10;;;30.30;71.60;;;;;;4826476;29;20064;-76
2022/06/04 14:36:21;;;;;;;9.63;5.50;;;30.20;72.60;;;;;;4841503;29;20052;-78
2022/06/04 14:39:07;;;;;;;9.77;6.25;;;30.10;72.70;;;;;;4841200;29;20064;-75
2022/06/04 14:42:27;;;;;;;14.45;6.55;;;30.00;73.80;;;;;;4841459;29;20057;-77
2022/06/04 14:45:42;;;;;;;17.50;13.63;;;30.00;74.50;;;;;;4840665;29;20213;-76
2022/06/04 14:48:53;;;;;;;20.88;16.38;;;29.90;73.00;;;;;;4841233;29;20183;-76
2022/06/04 14:52:03;;;;;;;24.73;8.73;;;29.90;71.90;;;;;;4841302;29;20525;-76
2022/06/04 14:54:51;;;;;;;14.48;8.50;;;29.90;70.10;;;;;;4840092;29;20053;-78
2022/06/04 14:57:57;;;;;;;19.10;11.63;;;30.00;70.50;;;;;;4841006;29;20049;-75
2022/06/04 15:01:11;;;;;;;24.42;15.75;;;30.10;68.80;;;;;;4840570;29;20129;-75
2022/06/04 15:04:29;;;;;;;15.25;6.43;;;30.20;68.60;;;;;;4840901;29;20053;-78
2022/06/04 15:07:34;;;;;;;12.65;6.68;;;30.20;70.70;;;;;;4840146;29;20065;-75